Time;durP1;ratioP1;P1;durP2;ratioP2;P2;SDS_P1;SDS_P2;PMS_P1;PMS_P2;Temp;Humidity;BMP_temperature;BMP_pressure;BME280_temperature;BME280_humidity;BME280_pressure;Samples;Min_cycle;Max_cycle;Signal;HPM_P1;HPM_P2
2021/04/18 00:01:44;;;;;;;;;;;19.10;50.50;;;;;;5044901;28;19925;-61
2021/04/18 00:04:10;;;;;;;;;;;19.20;50.50;;;;;;5043128;28;19924;-62
2021/04/18 00:06:37;;;;;;;;;;;19.10;50.50;;;;;;5041043;28;19982;-60
2021/04/18 00:09:07;;;;;;;;;;;19.10;51.20;;;;;;5031693;28;20623;-61
2021/04/18 00:11:33;;;;;;;;;;;19.10;50.50;;;;;;5041485;28;19940;-60
2021/04/18 00:14:00;;;;;;;;;;;19.10;50.50;;;;;;5046841;28;19932;-61
2021/04/18 00:16:26;;;;;;;;;;;19.10;50.50;;;;;;5044375;28;20538;-60
2021/04/18 00:18:52;;;;;;;;;;;19.10;50.50;;;;;;5039489;28;19925;-60
2021/04/18 00:21:18;;;;;;;;;;;19.00;50.50;;;;;;5043564;28;19940;-60
2021/04/18 00:23:44;;;;;;;;;;;19.00;50.40;;;;;;5046798;28;19997;-61
2021/04/18 00:26:11;;;;;;;;;;;19.00;50.40;;;;;;5046045;28;19932;-62
2021/04/18 00:28:37;;;;;;;;;;;19.00;50.40;;;;;;5041763;28;19924;-61
2021/04/18 00:31:03;;;;;;;;;;;19.00;50.40;;;;;;5043407;28;20973;-60
2021/04/18 00:33:29;;;;;;;;;;;19.00;50.50;;;;;;5046772;28;19925;-60
2021/04/18 00:35:56;;;;;;;;;;;19.00;50.40;;;;;;5043729;28;19924;-61
2021/04/18 00:38:22;;;;;;;;;;;19.00;50.40;;;;;;5030865;28;19947;-60
2021/04/18 00:40:48;;;;;;;;;;;19.00;50.40;;;;;;5041229;28;20313;-60
2021/04/18 00:43:15;;;;;;;;;;;19.00;50.40;;;;;;5041375;28;19936;-60
2021/04/18 00:45:41;;;;;;;;;;;19.00;50.40;;;;;;5044416;28;19932;-60
2021/04/18 00:48:07;;;;;;;;;;;19.00;50.40;;;;;;5046751;28;19924;-62
2021/04/18 00:50:35;;;;;;;;;;;19.00;50.40;;;;;;5032829;28;21098;-60
2021/04/18 00:53:06;;;;;;;;;;;18.90;50.30;;;;;;5039601;28;19929;-62
2021/04/18 00:55:37;;;;;;;;;;;18.90;50.30;;;;;;5035509;28;19932;-60
2021/04/18 00:58:05;;;;;;;;;;;18.90;50.30;;;;;;5037419;28;20369;-60
2021/04/18 01:00:31;;;;;;;;;;;18.90;50.40;;;;;;5038777;28;19925;-61
2021/04/18 01:02:58;;;;;;;;;;;18.90;50.50;;;;;;5041805;28;19979;-61
2021/04/18 01:05:28;;;;;;;;;;;18.90;50.50;;;;;;5041079;28;19937;-61
2021/04/18 01:07:54;;;;;;;;;;;18.90;50.50;;;;;;5040168;28;19955;-61
2021/04/18 01:10:20;;;;;;;;;;;18.90;50.50;;;;;;5040534;28;20321;-61
2021/04/18 01:12:47;;;;;;;;;;;18.90;50.50;;;;;;5041209;28;19933;-61
2021/04/18 01:15:14;;;;;;;;;;;18.80;50.40;;;;;;5030330;28;19924;-61
2021/04/18 01:17:40;;;;;;;;;;;18.90;50.50;;;;;;5043701;28;19929;-61
2021/04/18 01:20:09;;;;;;;;;;;18.80;50.40;;;;;;5029000;28;19976;-61
2021/04/18 01:22:35;;;;;;;;;;;18.80;50.30;;;;;;5044821;28;20478;-61
2021/04/18 01:25:02;;;;;;;;;;;18.80;50.30;;;;;;5009715;28;19933;-61
2021/04/18 01:27:28;;;;;;;;;;;18.80;50.30;;;;;;5023421;28;19933;-61
2021/04/18 01:29:54;;;;;;;;;;;18.80;50.30;;;;;;5018922;28;19930;-61
2021/04/18 01:32:21;;;;;;;;;;;18.80;50.30;;;;;;5015911;28;19925;-61
2021/04/18 01:34:48;;;;;;;;;;;18.80;50.30;;;;;;5009084;28;20523;-60
2021/04/18 01:37:16;;;;;;;;;;;18.80;50.30;;;;;;5022870;28;19925;-61
2021/04/18 01:39:43;;;;;;;;;;;18.80;50.30;;;;;;5020064;28;19929;-61
2021/04/18 01:42:09;;;;;;;;;;;18.70;50.20;;;;;;5016650;28;19960;-62
2021/04/18 01:44:35;;;;;;;;;;;18.80;50.30;;;;;;5023534;28;19933;-61
2021/04/18 01:47:01;;;;;;;;;;;18.80;50.30;;;;;;5017918;28;19926;-60
2021/04/18 01:49:28;;;;;;;;;;;18.70;50.20;;;;;;5017933;28;19931;-60
2021/04/18 01:51:54;;;;;;;;;;;18.80;50.20;;;;;;5018733;28;19926;-60
2021/04/18 01:54:20;;;;;;;;;;;18.70;50.10;;;;;;5021866;28;19925;-62
2021/04/18 01:56:46;;;;;;;;;;;18.70;50.10;;;;;;5018454;28;19936;-60
2021/04/18 01:59:12;;;;;;;;;;;18.70;50.10;;;;;;5024651;28;19926;-60
2021/04/18 02:01:39;;;;;;;;;;;18.70;50.10;;;;;;5019909;28;19925;-60
2021/04/18 02:04:25;;;;;;;;;;;18.70;50.10;;;;;;5020653;28;20028;-60
2021/04/18 02:06:52;;;;;;;;;;;18.70;50.10;;;;;;5000707;28;20627;-60
2021/04/18 02:09:18;;;;;;;;;;;18.70;50.20;;;;;;5026687;28;19940;-60
2021/04/18 02:11:44;;;;;;;;;;;18.70;50.20;;;;;;5011542;28;19940;-60
2021/04/18 02:14:11;;;;;;;;;;;18.70;50.20;;;;;;5024796;28;19932;-60
2021/04/18 02:16:37;;;;;;;;;;;18.70;50.20;;;;;;5028582;28;19925;-61
2021/04/18 02:19:03;;;;;;;;;;;18.70;50.20;;;;;;5017297;28;19932;-61
2021/04/18 02:21:29;;;;;;;;;;;18.60;50.10;;;;;;5011505;28;20485;-61
2021/04/18 02:23:56;;;;;;;;;;;18.60;50.10;;;;;;5031990;28;19932;-61
2021/04/18 02:26:22;;;;;;;;;;;18.60;50.20;;;;;;5047949;28;19935;-61
2021/04/18 02:28:48;;;;;;;;;;;18.60;50.10;;;;;;5045729;28;19925;-61
2021/04/18 02:31:15;;;;;;;;;;;18.60;50.10;;;;;;5041647;28;19931;-60
2021/04/18 02:33:41;;;;;;;;;;;18.60;50.10;;;;;;5042845;28;19932;-60
2021/04/18 02:36:08;;;;;;;;;;;18.60;50.10;;;;;;5042773;28;19929;-61
2021/04/18 02:38:34;;;;;;;;;;;18.60;50.10;;;;;;5041074;28;19925;-60
2021/04/18 02:41:01;;;;;;;;;;;18.60;50.10;;;;;;5036935;28;19933;-60
2021/04/18 02:43:27;;;;;;;;;;;18.60;50.10;;;;;;5043988;28;20282;-60
2021/04/18 02:45:53;;;;;;;;;;;18.60;50.10;;;;;;5041822;28;19924;-60
2021/04/18 02:48:19;;;;;;;;;;;18.50;50.10;;;;;;5044466;28;19968;-59
2021/04/18 02:50:45;;;;;;;;;;;18.50;50.10;;;;;;5018292;28;19926;-60
2021/04/18 02:53:12;;;;;;;;;;;18.50;50.10;;;;;;5028545;28;19925;-60
2021/04/18 02:55:38;;;;;;;;;;;18.50;50.10;;;;;;5040769;28;19924;-61
2021/04/18 02:58:05;;;;;;;;;;;18.50;50.10;;;;;;5045110;28;20463;-60
2021/04/18 03:00:35;;;;;;;;;;;18.50;50.10;;;;;;5045012;28;19932;-60
2021/04/18 03:03:01;;;;;;;;;;;18.50;50.10;;;;;;5026750;28;19925;-60
2021/04/18 03:05:27;;;;;;;;;;;18.40;50.00;;;;;;5041950;28;19929;-60
2021/04/18 03:07:53;;;;;;;;;;;18.40;50.00;;;;;;5042977;28;19925;-61
2021/04/18 03:10:20;;;;;;;;;;;18.50;50.10;;;;;;5042635;28;19929;-61
2021/04/18 03:12:46;;;;;;;;;;;18.50;50.10;;;;;;5030518;28;20388;-61
2021/04/18 03:15:12;;;;;;;;;;;18.40;50.10;;;;;;5043365;28;19925;-61
2021/04/18 03:17:39;;;;;;;;;;;18.40;50.00;;;;;;5039394;28;20088;-60
2021/04/18 03:20:06;;;;;;;;;;;18.40;50.00;;;;;;5043633;28;19924;-61
2021/04/18 03:22:32;;;;;;;;;;;18.40;50.00;;;;;;5022441;28;19932;-61
2021/04/18 03:24:58;;;;;;;;;;;18.50;50.10;;;;;;5037928;28;19925;-61
2021/04/18 03:27:24;;;;;;;;;;;18.40;50.00;;;;;;5030441;28;19925;-60
2021/04/18 03:29:50;;;;;;;;;;;18.40;50.10;;;;;;5036295;28;19925;-62
2021/04/18 03:32:17;;;;;;;;;;;18.40;50.10;;;;;;5018730;28;20054;-62
2021/04/18 03:34:43;;;;;;;;;;;18.40;50.10;;;;;;5045743;28;19932;-61
2021/04/18 03:37:09;;;;;;;;;;;18.40;50.00;;;;;;5033501;28;19936;-61
2021/04/18 03:39:35;;;;;;;;;;;18.40;50.00;;;;;;5035304;28;19925;-61
2021/04/18 03:42:02;;;;;;;;;;;18.40;50.10;;;;;;5029197;28;19932;-62
2021/04/18 03:44:28;;;;;;;;;;;18.40;50.00;;;;;;5042409;28;19931;-61
2021/04/18 03:46:54;;;;;;;;;;;18.40;50.00;;;;;;5047232;28;20282;-61
2021/04/18 03:49:20;;;;;;;;;;;18.40;50.00;;;;;;5045269;28;20023;-60
2021/04/18 03:51:47;;;;;;;;;;;18.30;50.00;;;;;;5039201;28;19935;-60
2021/04/18 03:54:13;;;;;;;;;;;18.40;50.00;;;;;;5035920;28;19924;-61
2021/04/18 03:56:39;;;;;;;;;;;18.30;50.00;;;;;;5046693;28;20373;-60
2021/04/18 03:59:06;;;;;;;;;;;18.30;50.00;;;;;;5042968;28;20370;-61
2021/04/18 04:01:32;;;;;;;;;;;18.30;50.00;;;;;;5042214;28;20652;-60
2021/04/18 04:03:59;;;;;;;;;;;18.30;50.00;;;;;;5034472;28;19982;-61
2021/04/18 04:06:26;;;;;;;;;;;18.30;50.00;;;;;;5040643;28;20419;-60
2021/04/18 04:08:52;;;;;;;;;;;18.30;50.00;;;;;;5038727;28;19929;-61
2021/04/18 04:11:18;;;;;;;;;;;18.30;50.00;;;;;;5043653;28;19925;-61
2021/04/18 04:13:44;;;;;;;;;;;18.30;50.00;;;;;;5031792;28;19925;-61
2021/04/18 04:16:10;;;;;;;;;;;18.30;50.00;;;;;;5045001;28;19925;-61
2021/04/18 04:18:37;;;;;;;;;;;18.30;50.00;;;;;;5036223;28;19929;-61
2021/04/18 04:21:03;;;;;;;;;;;18.30;50.00;;;;;;5034663;28;20292;-60
2021/04/18 04:23:29;;;;;;;;;;;18.20;50.00;;;;;;5028889;28;20427;-60
2021/04/18 04:26:05;;;;;;;;;;;18.30;50.00;;;;;;5052687;28;19920;-57
2021/04/18 04:28:32;;;;;;;;;;;18.20;49.90;;;;;;5042883;28;19925;-60
2021/04/18 04:30:58;;;;;;;;;;;18.20;49.90;;;;;;5035276;28;19933;-54
2021/04/18 04:33:24;;;;;;;;;;;18.30;49.90;;;;;;5033897;28;19925;-55
2021/04/18 04:35:51;;;;;;;;;;;18.30;49.90;;;;;;5044370;28;19924;-56
2021/04/18 04:38:17;;;;;;;;;;;18.30;49.90;;;;;;5039511;28;19936;-56
2021/04/18 04:40:43;;;;;;;;;;;18.20;49.80;;;;;;5039405;28;20348;-54
2021/04/18 04:43:09;;;;;;;;;;;18.20;49.90;;;;;;5040916;28;19932;-56
2021/04/18 04:45:35;;;;;;;;;;;18.20;49.90;;;;;;5039469;28;20401;-55
2021/04/18 04:48:02;;;;;;;;;;;18.20;49.80;;;;;;5045598;28;19925;-56
2021/04/18 04:50:28;;;;;;;;;;;18.20;49.80;;;;;;5028961;28;19931;-56
2021/04/18 04:52:57;;;;;;;;;;;18.20;49.80;;;;;;5036477;28;19932;-56
2021/04/18 04:55:23;;;;;;;;;;;18.20;49.80;;;;;;5027193;28;19925;-56
2021/04/18 04:57:49;;;;;;;;;;;18.10;49.80;;;;;;5038325;28;19925;-56
2021/04/18 05:00:15;;;;;;;;;;;18.20;49.80;;;;;;5027601;28;19929;-56
2021/04/18 05:02:41;;;;;;;;;;;18.20;49.80;;;;;;5031347;28;19933;-56
2021/04/18 05:05:10;;;;;;;;;;;18.20;49.80;;;;;;5037955;28;19978;-58
2021/04/18 05:07:36;;;;;;;;;;;18.10;49.70;;;;;;5044705;28;19979;-54
2021/04/18 05:10:03;;;;;;;;;;;18.20;49.80;;;;;;5024711;28;19933;-55
2021/04/18 05:12:29;;;;;;;;;;;18.10;49.70;;;;;;5037783;28;19933;-54
2021/04/18 05:14:55;;;;;;;;;;;18.20;49.80;;;;;;5025933;28;19931;-56
2021/04/18 05:17:21;;;;;;;;;;;18.10;49.70;;;;;;5034967;28;19924;-55
2021/04/18 05:19:53;;;;;;;;;;;18.10;49.70;;;;;;5029338;28;19987;-55
2021/04/18 05:22:19;;;;;;;;;;;18.10;49.70;;;;;;5044887;28;19925;-54
2021/04/18 05:24:45;;;;;;;;;;;18.10;49.70;;;;;;5042891;28;19932;-55
2021/04/18 05:27:11;;;;;;;;;;;18.10;49.70;;;;;;5048126;28;19948;-57
2021/04/18 05:29:38;;;;;;;;;;;18.10;49.70;;;;;;5039357;28;19949;-54
2021/04/18 05:32:04;;;;;;;;;;;18.10;49.70;;;;;;5047165;28;22675;-55
2021/04/18 05:34:32;;;;;;;;;;;18.10;49.60;;;;;;5050167;28;19925;-55
2021/04/18 05:37:00;;;;;;;;;;;18.10;49.60;;;;;;5048072;28;19928;-56
2021/04/18 05:39:27;;;;;;;;;;;18.10;49.60;;;;;;5036349;28;19936;-57
2021/04/18 05:41:54;;;;;;;;;;;18.10;49.50;;;;;;5037791;28;19933;-55
2021/04/18 05:44:20;;;;;;;;;;;18.10;49.50;;;;;;5038278;28;19933;-55
2021/04/18 05:46:46;;;;;;;;;;;18.00;49.50;;;;;;5041754;28;19932;-55
2021/04/18 05:49:13;;;;;;;;;;;18.10;49.50;;;;;;5042244;28;19928;-55
2021/04/18 05:51:39;;;;;;;;;;;18.10;49.50;;;;;;5039284;28;19925;-57
2021/04/18 05:54:06;;;;;;;;;;;18.00;49.50;;;;;;5043695;28;20373;-54
2021/04/18 05:56:32;;;;;;;;;;;18.10;49.50;;;;;;5048150;28;19925;-55
2021/04/18 05:58:58;;;;;;;;;;;18.10;49.50;;;;;;5048546;28;19939;-56
2021/04/18 06:01:26;;;;;;;;;;;18.10;49.50;;;;;;5043454;28;19925;-56
2021/04/18 06:03:56;;;;;;;;;;;18.00;49.50;;;;;;5040762;28;19983;-56
2021/04/18 06:06:23;;;;;;;;;;;18.00;49.50;;;;;;5034895;28;20519;-54
2021/04/18 06:08:49;;;;;;;;;;;18.00;49.50;;;;;;5043584;28;20297;-56
2021/04/18 06:11:16;;;;;;;;;;;18.00;49.50;;;;;;5031957;28;19928;-59
2021/04/18 06:13:42;;;;;;;;;;;18.00;49.50;;;;;;5044072;28;19924;-55
2021/04/18 06:16:08;;;;;;;;;;;18.00;49.50;;;;;;5049874;28;20407;-55
2021/04/18 06:18:35;;;;;;;;;;;18.00;49.50;;;;;;5047356;28;21735;-54
2021/04/18 06:21:02;;;;;;;;;;;18.00;49.50;;;;;;5031689;28;20173;-56
2021/04/18 06:23:28;;;;;;;;;;;18.00;49.50;;;;;;5046459;28;19925;-55
2021/04/18 06:25:54;;;;;;;;;;;18.00;49.40;;;;;;5039262;28;19932;-54
2021/04/18 06:28:21;;;;;;;;;;;18.00;49.40;;;;;;5034986;28;19925;-55
2021/04/18 06:30:47;;;;;;;;;;;18.00;49.40;;;;;;5031909;28;19928;-55
2021/04/18 06:33:13;;;;;;;;;;;18.00;49.40;;;;;;5038149;28;19932;-57
2021/04/18 06:35:41;;;;;;;;;;;18.00;49.40;;;;;;5042818;28;19929;-57
2021/04/18 06:38:08;;;;;;;;;;;18.00;49.40;;;;;;5045208;28;19933;-56
2021/04/18 06:40:34;;;;;;;;;;;18.00;49.40;;;;;;5041253;28;20362;-54
2021/04/18 06:43:02;;;;;;;;;;;18.00;49.40;;;;;;5033240;28;19933;-55
2021/04/18 06:45:28;;;;;;;;;;;18.00;49.40;;;;;;5041138;28;20486;-56
2021/04/18 06:47:54;;;;;;;;;;;18.00;49.30;;;;;;5044469;28;20501;-56
2021/04/18 06:50:21;;;;;;;;;;;18.00;49.40;;;;;;5030468;28;19932;-56
2021/04/18 06:52:47;;;;;;;;;;;18.00;49.40;;;;;;5047149;28;19936;-56
2021/04/18 06:55:14;;;;;;;;;;;18.00;49.40;;;;;;5046528;28;19932;-56
2021/04/18 06:57:40;;;;;;;;;;;18.00;49.40;;;;;;5037568;28;19929;-57
2021/04/18 07:00:08;;;;;;;;;;;18.00;49.40;;;;;;5043833;28;19924;-56
2021/04/18 07:02:35;;;;;;;;;;;18.00;49.40;;;;;;5034155;28;21572;-56
2021/04/18 07:05:02;;;;;;;;;;;18.00;49.40;;;;;;5039808;28;19959;-55
2021/04/18 07:07:28;;;;;;;;;;;18.00;49.40;;;;;;5033536;28;19975;-55
2021/04/18 07:09:55;;;;;;;;;;;18.00;49.40;;;;;;5041381;28;20389;-55
2021/04/18 07:12:25;;;;;;;;;;;18.00;49.40;;;;;;5045067;28;19925;-55
2021/04/18 07:14:51;;;;;;;;;;;18.00;49.40;;;;;;5045823;28;19924;-55
2021/04/18 07:17:17;;;;;;;;;;;18.00;49.40;;;;;;5031134;28;20546;-54
2021/04/18 07:19:46;;;;;;;;;;;18.00;49.40;;;;;;5043041;28;20277;-55
2021/04/18 07:22:19;;;;;;;;;;;18.00;49.40;;;;;;5030252;28;20369;-56
2021/04/18 07:24:49;;;;;;;;;;;18.00;49.40;;;;;;5043597;28;19932;-56
2021/04/18 07:27:16;;;;;;;;;;;18.00;49.40;;;;;;5040109;28;20278;-55
2021/04/18 07:29:51;;;;;;;;;;;18.00;49.40;;;;;;5036566;28;19937;-56
2021/04/18 07:32:18;;;;;;;;;;;18.00;49.40;;;;;;5029427;28;19932;-55
2021/04/18 07:34:45;;;;;;;;;;;18.00;49.40;;;;;;5044950;28;19955;-56
2021/04/18 07:37:15;;;;;;;;;;;18.00;49.40;;;;;;5045786;28;19929;-56
2021/04/18 07:40:02;;;;;;;;;;;18.00;49.40;;;;;;5037376;28;19929;-55
2021/04/18 07:42:31;;;;;;;;;;;18.00;49.40;;;;;;5041753;28;20315;-56
2021/04/18 07:44:58;;;;;;;;;;;18.00;50.00;;;;;;5043157;28;20827;-55
2021/04/18 07:47:25;;;;;;;;;;;18.00;49.40;;;;;;5039286;28;19941;-54
2021/04/18 07:49:53;;;;;;;;;;;18.00;49.40;;;;;;5043645;28;19936;-55
2021/04/18 07:52:20;;;;;;;;;;;18.00;49.40;;;;;;5041655;28;19936;-55
2021/04/18 07:54:46;;;;;;;;;;;18.00;49.40;;;;;;5032731;28;20081;-56
2021/04/18 07:57:16;;;;;;;;;;;18.00;49.40;;;;;;5031144;28;19925;-55
2021/04/18 07:59:42;;;;;;;;;;;18.00;49.50;;;;;;5032854;28;19925;-56
2021/04/18 08:02:08;;;;;;;;;;;18.00;50.40;;;;;;5042969;28;19929;-55
2021/04/18 08:04:35;;;;;;;;;;;18.10;50.60;;;;;;5035385;28;20431;-55
2021/04/18 08:07:01;;;;;;;;;;;18.10;50.50;;;;;;5038999;28;19929;-55
2021/04/18 08:09:28;;;;;;;;;;;18.10;50.40;;;;;;5045603;28;20409;-55
2021/04/18 08:12:06;;;;;;;;;;;18.10;50.20;;;;;;5043378;28;19936;-55
2021/04/18 08:14:32;;;;;;;;;;;18.10;50.20;;;;;;5043422;28;20304;-56
2021/04/18 08:17:03;;;;;;;;;;;18.10;50.10;;;;;;5044200;28;20301;-56
2021/04/18 08:19:29;;;;;;;;;;;18.10;50.00;;;;;;5030944;28;19937;-56
2021/04/18 08:21:55;;;;;;;;;;;18.10;50.50;;;;;;5029468;28;19936;-56
2021/04/18 08:24:22;;;;;;;;;;;18.10;49.90;;;;;;5031213;28;19929;-56
2021/04/18 08:26:55;;;;;;;;;;;18.10;49.80;;;;;;5019359;28;21286;-56
2021/04/18 08:29:21;;;;;;;;;;;18.10;49.80;;;;;;5026768;28;20489;-55
2021/04/18 08:31:53;;;;;;;;;;;18.10;49.80;;;;;;5027445;28;19929;-55
2021/04/18 08:34:30;;;;;;;;;;;18.10;50.10;;;;;;5041647;28;19925;-55
2021/04/18 08:36:57;;;;;;;;;;;18.20;50.50;;;;;;5043030;28;19924;-59
2021/04/18 08:39:24;;;;;;;;;;;18.20;50.30;;;;;;5040803;28;19983;-59
2021/04/18 08:41:53;;;;;;;;;;;18.20;50.20;;;;;;5026545;28;20425;-60
2021/04/18 08:44:25;;;;;;;;;;;18.20;50.20;;;;;;5041068;28;19986;-60
2021/04/18 08:46:53;;;;;;;;;;;18.20;50.10;;;;;;5038211;28;19935;-55
2021/04/18 08:49:27;;;;;;;;;;;18.20;50.00;;;;;;5039912;28;19986;-55
2021/04/18 08:51:54;;;;;;;;;;;18.20;49.90;;;;;;5033559;28;19939;-55
2021/04/18 08:54:24;;;;;;;;;;;18.20;49.90;;;;;;5032933;28;19940;-55
2021/04/18 08:56:54;;;;;;;;;;;18.20;49.80;;;;;;5035207;28;20432;-57
2021/04/18 08:59:21;;;;;;;;;;;18.20;49.70;;;;;;5043907;28;19933;-55
2021/04/18 09:02:03;;;;;;;;;;;18.20;49.70;;;;;;5040083;28;19951;-55
2021/04/18 09:04:34;;;;;;;;;;;18.20;49.60;;;;;;5043279;28;19933;-55
2021/04/18 09:07:01;;;;;;;;;;;18.30;49.70;;;;;;5044181;28;20338;-60
2021/04/18 09:09:28;;;;;;;;;;;18.20;49.60;;;;;;5036068;28;19937;-60
2021/04/18 09:11:55;;;;;;;;;;;18.30;49.70;;;;;;5038453;28;19933;-59
2021/04/18 09:14:25;;;;;;;;;;;18.20;49.50;;;;;;5039589;28;20332;-60
2021/04/18 09:16:52;;;;;;;;;;;18.20;49.50;;;;;;5040168;28;19983;-60
2021/04/18 09:19:30;;;;;;;;;;;18.30;49.50;;;;;;5040180;28;19995;-60
2021/04/18 09:22:00;;;;;;;;;;;18.30;49.40;;;;;;5028881;28;19929;-61
2021/04/18 09:24:28;;;;;;;;;;;18.30;49.30;;;;;;5041752;28;20743;-60
2021/04/18 09:27:00;;;;;;;;;;;18.30;49.30;;;;;;5048347;28;20397;-55
2021/04/18 09:29:28;;;;;;;;;;;18.30;49.20;;;;;;5044566;28;19933;-56
2021/04/18 09:31:54;;;;;;;;;;;18.40;49.20;;;;;;5044589;28;20292;-57
2021/04/18 09:34:21;;;;;;;;;;;18.30;49.20;;;;;;5047883;28;19936;-56
2021/04/18 09:36:48;;;;;;;;;;;18.30;49.20;;;;;;5044393;28;20315;-56
2021/04/18 09:39:14;;;;;;;;;;;18.40;49.20;;;;;;5044688;28;19929;-56
2021/04/18 09:41:41;;;;;;;;;;;18.40;49.20;;;;;;5044600;28;19979;-56
2021/04/18 09:44:08;;;;;;;;;;;18.30;49.10;;;;;;5043026;28;19925;-55
2021/04/18 09:46:41;;;;;;;;;;;18.40;49.10;;;;;;5040888;28;19928;-55
2021/04/18 09:49:08;;;;;;;;;;;18.40;49.10;;;;;;5032525;28;21499;-56
2021/04/18 09:51:51;;;;;;;;;;;18.40;49.00;;;;;;5024820;28;19951;-56
2021/04/18 09:54:25;;;;;;;;;;;18.40;49.00;;;;;;5013873;28;20603;-56
2021/04/18 09:57:15;;;;;;;;;;;18.40;49.00;;;;;;5024239;28;19952;-55
2021/04/18 09:59:41;;;;;;;;;;;18.40;48.90;;;;;;5045469;28;20545;-54
2021/04/18 10:02:15;;;;;;;;;;;18.40;48.90;;;;;;5027513;28;19924;-54
2021/04/18 10:04:42;;;;;;;;;;;18.50;49.10;;;;;;5043069;28;20559;-55
2021/04/18 10:07:26;;;;;;;;;;;18.50;49.40;;;;;;5047063;28;19930;-55
2021/04/18 10:10:03;;;;;;;;;;;18.50;49.70;;;;;;5033116;28;20793;-55
2021/04/18 10:12:44;;;;;;;;;;;18.50;50.10;;;;;;5046019;28;20606;-55
2021/04/18 10:15:10;;;;;;;;;;;18.50;50.30;;;;;;5045228;28;21394;-56
2021/04/18 10:17:36;;;;;;;;;;;18.50;51.00;;;;;;5022786;28;20019;-54
2021/04/18 10:20:05;;;;;;;;;;;18.60;51.10;;;;;;5046459;28;19931;-56
2021/04/18 10:22:31;;;;;;;;;;;18.50;51.10;;;;;;5031597;28;19932;-60
2021/04/18 10:24:58;;;;;;;;;;;18.50;51.30;;;;;;5044382;28;19951;-60
2021/04/18 10:27:26;;;;;;;;;;;18.60;51.40;;;;;;5037332;28;19932;-60
2021/04/18 10:29:53;;;;;;;;;;;18.60;51.60;;;;;;5043873;28;19936;-60
2021/04/18 10:32:20;;;;;;;;;;;18.60;51.30;;;;;;5044701;28;19929;-61
2021/04/18 10:34:47;;;;;;;;;;;18.60;51.20;;;;;;5044773;28;19932;-61
2021/04/18 10:37:14;;;;;;;;;;;18.60;51.20;;;;;;5045297;28;19932;-61
2021/04/18 10:39:40;;;;;;;;;;;18.60;51.20;;;;;;5044902;28;20535;-60
2021/04/18 10:42:06;;;;;;;;;;;18.60;51.40;;;;;;5046292;28;19931;-61
2021/04/18 10:44:33;;;;;;;;;;;18.60;51.40;;;;;;5036704;28;19939;-61
2021/04/18 10:47:01;;;;;;;;;;;18.70;51.50;;;;;;5044610;28;19978;-61
2021/04/18 10:49:27;;;;;;;;;;;18.70;51.60;;;;;;5039065;28;19952;-61
2021/04/18 10:51:55;;;;;;;;;;;18.70;52.50;;;;;;5029220;28;19929;-60
2021/04/18 10:54:22;;;;;;;;;;;18.70;52.00;;;;;;5035023;28;19925;-60
2021/04/18 10:56:48;;;;;;;;;;;18.70;52.20;;;;;;5046700;28;19975;-60
2021/04/18 10:59:15;;;;;;;;;;;18.80;52.20;;;;;;5044276;28;20051;-60
2021/04/18 11:01:42;;;;;;;;;;;18.80;52.60;;;;;;5044854;28;20002;-60
2021/04/18 11:04:10;;;;;;;;;;;18.80;52.70;;;;;;5045798;28;19924;-60
2021/04/18 11:06:37;;;;;;;;;;;18.80;52.70;;;;;;5036717;28;20348;-61
2021/04/18 11:09:06;;;;;;;;;;;18.80;52.70;;;;;;5046399;28;19932;-61
2021/04/18 11:11:33;;;;;;;;;;;18.80;53.10;;;;;;5042461;28;19932;-61
2021/04/18 11:13:59;;;;;;;;;;;18.80;52.90;;;;;;5045121;28;20366;-62
2021/04/18 11:16:26;;;;;;;;;;;18.80;52.90;;;;;;5035530;28;19933;-61
2021/04/18 11:18:52;;;;;;;;;;;18.80;53.00;;;;;;5033361;28;19956;-60
2021/04/18 11:21:19;;;;;;;;;;;18.80;53.80;;;;;;5039347;28;19925;-60
2021/04/18 11:23:46;;;;;;;;;;;18.80;53.40;;;;;;5032263;28;19940;-61
2021/04/18 11:26:12;;;;;;;;;;;18.90;53.80;;;;;;5042071;28;19932;-60
2021/04/18 11:28:38;;;;;;;;;;;18.90;53.60;;;;;;5033769;28;20082;-62
2021/04/18 11:31:04;;;;;;;;;;;18.90;53.60;;;;;;5029310;28;19936;-56
2021/04/18 11:33:31;;;;;;;;;;;18.90;53.70;;;;;;5027141;28;19998;-56
2021/04/18 11:35:57;;;;;;;;;;;18.90;53.80;;;;;;5036767;28;20016;-56
2021/04/18 11:38:24;;;;;;;;;;;18.90;53.50;;;;;;5037722;28;19925;-54
2021/04/18 11:40:50;;;;;;;;;;;18.90;53.10;;;;;;5042831;28;19994;-55
2021/04/18 11:43:16;;;;;;;;;;;18.90;53.00;;;;;;5034848;28;19978;-55
2021/04/18 11:45:43;;;;;;;;;;;18.90;52.90;;;;;;5043986;28;19924;-55
2021/04/18 11:48:09;;;;;;;;;;;19.00;52.80;;;;;;5032113;28;19936;-55
2021/04/18 11:50:36;;;;;;;;;;;19.00;52.70;;;;;;5047068;28;20336;-55
2021/04/18 11:53:02;;;;;;;;;;;19.00;52.80;;;;;;5031273;28;20277;-55
2021/04/18 11:55:29;;;;;;;;;;;19.00;52.90;;;;;;5039896;28;19944;-55
2021/04/18 11:57:55;;;;;;;;;;;19.00;53.20;;;;;;5025055;28;20290;-56
2021/04/18 12:00:22;;;;;;;;;;;19.10;53.70;;;;;;5045315;28;19933;-59
2021/04/18 12:02:48;;;;;;;;;;;19.10;52.80;;;;;;5040940;28;19933;-60
2021/04/18 12:05:15;;;;;;;;;;;19.20;53.00;;;;;;5042905;28;19986;-61
2021/04/18 12:07:41;;;;;;;;;;;19.10;52.90;;;;;;5041254;28;19925;-59
2021/04/18 12:10:08;;;;;;;;;;;19.10;52.80;;;;;;5045528;28;19932;-59
2021/04/18 12:16:06;;;;;;;;;;;19.20;53.00;;;;;;5010579;28;20504;-55
2021/04/18 12:18:32;;;;;;;;;;;19.20;53.40;;;;;;5035848;28;20389;-56
2021/04/18 12:20:59;;;;;;;;;;;19.20;53.60;;;;;;5035137;28;19925;-60
2021/04/18 12:23:25;;;;;;;;;;;19.20;53.50;;;;;;5042868;28;20413;-61
2021/04/18 12:25:51;;;;;;;;;;;19.30;53.40;;;;;;5042398;28;19932;-62
2021/04/18 12:28:17;;;;;;;;;;;19.30;53.00;;;;;;5036070;28;19932;-61
2021/04/18 12:30:43;;;;;;;;;;;19.30;52.50;;;;;;5038136;28;19925;-59
2021/04/18 12:33:10;;;;;;;;;;;19.40;52.30;;;;;;5030981;28;19925;-60
2021/04/18 12:35:36;;;;;;;;;;;19.40;52.30;;;;;;5039822;28;20605;-59
2021/04/18 12:38:02;;;;;;;;;;;19.40;52.10;;;;;;5043839;28;20721;-60
2021/04/18 12:40:29;;;;;;;;;;;19.40;52.20;;;;;;5042021;28;19932;-55
2021/04/18 12:42:55;;;;;;;;;;;19.40;52.30;;;;;;5034246;28;19933;-57
2021/04/18 12:45:21;;;;;;;;;;;19.50;52.40;;;;;;5033651;28;19925;-56
2021/04/18 12:47:47;;;;;;;;;;;19.50;52.70;;;;;;5035938;28;19929;-56
2021/04/18 12:50:14;;;;;;;;;;;19.50;52.60;;;;;;5039078;28;19928;-57
2021/04/18 12:52:41;;;;;;;;;;;19.50;52.50;;;;;;5034210;28;20034;-57
2021/04/18 12:55:08;;;;;;;;;;;19.50;52.30;;;;;;5037615;28;20457;-55
2021/04/18 12:57:36;;;;;;;;;;;19.60;52.20;;;;;;5036946;28;19928;-56
2021/04/18 13:00:07;;;;;;;;;;;19.50;51.80;;;;;;5037257;28;19948;-55
2021/04/18 13:02:33;;;;;;;;;;;19.50;51.20;;;;;;5040469;28;19929;-54
2021/04/18 13:05:01;;;;;;;;;;;19.60;51.30;;;;;;5038574;28;20342;-54
2021/04/18 13:07:34;;;;;;;;;;;19.60;51.50;;;;;;5041916;28;19925;-56
2021/04/18 13:10:05;;;;;;;;;;;19.60;50.90;;;;;;5044377;28;20312;-57
2021/04/18 13:12:32;;;;;;;;;;;19.60;50.80;;;;;;5043796;28;19928;-56
2021/04/18 13:14:58;;;;;;;;;;;19.60;51.10;;;;;;5033964;28;19933;-57
2021/04/18 13:17:25;;;;;;;;;;;19.60;51.10;;;;;;5041252;28;19933;-56
2021/04/18 13:19:52;;;;;;;;;;;19.60;50.70;;;;;;5040188;28;19936;-57
2021/04/18 13:22:18;;;;;;;;;;;19.60;50.90;;;;;;5042772;28;19952;-56
2021/04/18 13:24:45;;;;;;;;;;;19.70;51.10;;;;;;5029625;28;20436;-55
2021/04/18 13:27:13;;;;;;;;;;;19.70;50.60;;;;;;5034771;28;19936;-55
2021/04/18 13:29:39;;;;;;;;;;;19.70;50.60;;;;;;5037443;28;19932;-55
2021/04/18 13:32:06;;;;;;;;;;;19.70;50.70;;;;;;5044108;28;20262;-55
2021/04/18 13:34:33;;;;;;;;;;;19.70;50.50;;;;;;5042905;28;19924;-55
2021/04/18 13:37:00;;;;;;;;;;;19.70;50.30;;;;;;5038227;28;20524;-55
2021/04/18 13:39:26;;;;;;;;;;;19.70;50.20;;;;;;5037412;28;19936;-54
2021/04/18 13:41:52;;;;;;;;;;;19.80;50.50;;;;;;5026707;28;19928;-56
2021/04/18 13:44:18;;;;;;;;;;;19.70;50.50;;;;;;5044536;28;19929;-56
2021/04/18 13:46:45;;;;;;;;;;;19.80;50.60;;;;;;5041315;28;19983;-56
2021/04/18 13:49:12;;;;;;;;;;;19.80;50.60;;;;;;5037753;28;20003;-56
2021/04/18 13:51:43;;;;;;;;;;;19.80;50.70;;;;;;5038184;28;20178;-56
2021/04/18 13:54:09;;;;;;;;;;;19.90;50.80;;;;;;5045674;28;20481;-56
2021/04/18 13:56:36;;;;;;;;;;;19.90;51.00;;;;;;5036300;28;20834;-57
2021/04/18 13:59:02;;;;;;;;;;;19.90;50.90;;;;;;5041628;28;19925;-56
2021/04/18 14:01:29;;;;;;;;;;;19.90;50.90;;;;;;5043436;28;19939;-57
2021/04/18 14:03:55;;;;;;;;;;;19.90;50.90;;;;;;5034731;28;20129;-57
2021/04/18 14:06:22;;;;;;;;;;;20.00;50.90;;;;;;5043914;28;20304;-57
2021/04/18 14:08:49;;;;;;;;;;;19.90;51.00;;;;;;5042740;28;19932;-57
2021/04/18 14:11:15;;;;;;;;;;;20.00;51.10;;;;;;5038339;28;19936;-60
2021/04/18 14:13:42;;;;;;;;;;;20.00;51.40;;;;;;5041336;28;20621;-60
2021/04/18 14:16:09;;;;;;;;;;;20.00;51.60;;;;;;5042074;28;19932;-57
2021/04/18 14:18:36;;;;;;;;;;;20.00;51.50;;;;;;5037590;28;20560;-57
2021/04/18 14:21:03;;;;;;;;;;;20.00;51.50;;;;;;5041363;28;19929;-57